Map

Track Data

SID SEASON NUMBER BASIN SUBBASIN NAME ISO_TIME NATURE LAT LON WMO_WIND WMO_PRES WMO_AGENCY TRACK_TYPE DIST2LAND LANDFALL IFLAG USA_AGENCY USA_ATCF_ID USA_LAT USA_LON USA_RECORD USA_STATUS USA_WIND USA_PRES USA_SSHS USA_R34_NE USA_R34_SE USA_R34_SW USA_R34_NW USA_R50_NE USA_R50_SE USA_R50_SW USA_R50_NW USA_R64_NE USA_R64_SE USA_R64_SW USA_R64_NW USA_POCI USA_ROCI USA_RMW USA_EYE TOKYO_LAT TOKYO_LON TOKYO_GRADE TOKYO_WIND TOKYO_PRES TOKYO_R50_DIR TOKYO_R50_LONG TOKYO_R50_SHORT TOKYO_R30_DIR TOKYO_R30_LONG TOKYO_R30_SHORT TOKYO_LAND CMA_LAT CMA_LON CMA_CAT CMA_WIND CMA_PRES HKO_LAT HKO_LON HKO_CAT HKO_WIND HKO_PRES NEWDELHI_LAT NEWDELHI_LON NEWDELHI_GRADE NEWDELHI_WIND NEWDELHI_PRES NEWDELHI_CI NEWDELHI_DP NEWDELHI_POCI REUNION_LAT REUNION_LON REUNION_TYPE REUNION_WIND REUNION_PRES REUNION_TNUM REUNION_CI REUNION_RMW REUNION_R34_NE REUNION_R34_SE REUNION_R34_SW REUNION_R34_NW REUNION_R50_NE REUNION_R50_SE REUNION_R50_SW REUNION_R50_NW REUNION_R64_NE REUNION_R64_SE REUNION_R64_SW REUNION_R64_NW BOM_LAT BOM_LON BOM_TYPE BOM_WIND BOM_PRES BOM_TNUM BOM_CI BOM_RMW BOM_R34_NE BOM_R34_SE BOM_R34_SW BOM_R34_NW BOM_R50_NE BOM_R50_SE BOM_R50_SW BOM_R50_NW BOM_R64_NE BOM_R64_SE BOM_R64_SW BOM_R64_NW BOM_ROCI BOM_POCI BOM_EYE BOM_POS_METHOD BOM_PRES_METHOD NADI_LAT NADI_LON NADI_CAT NADI_WIND NADI_PRES WELLINGTON_LAT WELLINGTON_LON WELLINGTON_WIND WELLINGTON_PRES DS824_LAT DS824_LON DS824_STAGE DS824_WIND DS824_PRES TD9636_LAT TD9636_LON TD9636_STAGE TD9636_WIND TD9636_PRES TD9635_LAT TD9635_LON TD9635_WIND TD9635_PRES TD9635_ROCI NEUMANN_LAT NEUMANN_LON NEUMANN_CLASS NEUMANN_WIND NEUMANN_PRES MLC_LAT MLC_LON MLC_CLASS MLC_WIND MLC_PRES USA_GUST BOM_GUST BOM_GUST_PER REUNION_GUST REUNION_GUST_PER USA_SEAHGT USA_SEARAD_NE USA_SEARAD_SE USA_SEARAD_SW USA_SEARAD_NW STORM_SPEED STORM_DIR
1941187N22088 1941 32 NI BB NOT_NAMED 1941-07-06 00:00:00 TS 21.6000 88.3000 main 0 0 _________O____ -1 21.6000 88.3000 TC 30 2 0
1941187N22088 1941 32 NI BB NOT_NAMED 1941-07-06 03:00:00 TS 21.7050 88.2967 main 0 0 _________PO___ -1 21.7575 88.2950 TC 30 21.6000 88.3000 1 2 358
1941187N22088 1941 32 NI BB NOT_NAMED 1941-07-06 06:00:00 TS 21.8306 88.2982 main 0 0 _________OP___ -1 21.9000 88.3000 TC 30 21.7265 88.2956 1 2 3
1941187N22088 1941 32 NI BB NOT_NAMED 1941-07-06 09:00:00 TS 21.9453 88.3169 main 0 0 _________PP___ -1 22.0150 88.3275 TC 30 21.8525 88.3029 1 2 19
1941187N22088 1941 32 NI BB NOT_NAMED 1941-07-06 12:00:00 TS 22.0386 88.3669 main 0 0 _________OP___ -1 22.1000 88.4000 TC 30 21.9772 88.3337 1 2 36
1941187N22088 1941 32 NI BB NOT_NAMED 1941-07-06 15:00:00 TS 22.1325 88.4675 main 0 0 _________PO___ -1 22.1650 88.5350 TC 30 22.1000 88.4000 1 3 52
1941187N22088 1941 32 NI BB NOT_NAMED 1941-07-06 18:00:00 TS 22.2074 88.6048 main 0 0 _________OP___ -1 22.2000 88.7000 TC 30 22.2147 88.5095 1 3 60
1941187N22088 1941 32 NI BB NOT_NAMED 1941-07-06 21:00:00 TS 22.2762 88.7370 main 0 0 _________PP___ -1 22.2599 88.8197 TC 30 22.2925 88.6543 1 3 81
1941187N22088 1941 32 NI BB NOT_NAMED 1941-07-07 00:00:00 TS 22.2495 88.9109 main 0 0 _________OP___ -1 22.2000 89.0000 TC 30 22.2991 88.8219 1 5 118
1941187N22088 1941 32 NI BB NOT_NAMED 1941-07-07 03:00:00 TS 22.0514 89.1866 main 0 0 _________PO___ -1 21.9028 89.3732 TC 38 22.2000 89.0000 1 8 136
1941187N22088 1941 32 NI BB NOT_NAMED 1941-07-07 06:00:00 TS 21.6964 89.4855 main 10 10 _________OP___ -1 21.5000 89.7000 TC 47 21.8928 89.2709 1 9 149
1941187N22088 1941 32 NI BB NOT_NAMED 1941-07-07 09:00:00 TS 21.2909 89.6833 main 54 54 _________PP___ -1 21.0896 89.8347 TC 55 21.4922 89.5320 1 8 165
1941187N22088 1941 32 NI BB NOT_NAMED 1941-07-07 12:00:00 TS 20.9477 89.7009 main 94 91 _________OP___ -1 20.8000 89.7000 TC 64 21.0954 89.7017 1 5 204
1941187N22088 1941 32 NI BB NOT_NAMED 1941-07-07 15:00:00 TS 20.7953 89.4514 main 98 89 _________PO___ -1 20.7906 89.2028 TC 64 20.8000 89.7000 4 7 259
1941187N22088 1941 32 NI BB NOT_NAMED 1941-07-07 18:00:00 TS 20.8224 88.9784 main 89 78 _________OP___ -1 20.9000 88.6000 TC 64 20.7447 89.3568 4 9 275
1941187N22088 1941 32 NI BB NOT_NAMED 1941-07-07 21:00:00 TS 20.8775 88.5104 main 78 78 _________PP___ -1 20.9574 88.1675 TC 64 20.7975 88.8532 4 8 279
1941187N22088 1941 32 NI BB NOT_NAMED 1941-07-08 00:00:00 TS 20.9506 88.1114 main 67 67 _________OP___ -1 21.0000 87.9000 TC 64 20.9012 88.3229 4 6 282
1941187N22088 1941 32 NI BB NOT_NAMED 1941-07-08 03:00:00 TS 21.0037 87.8737 main 73 73 _________PO___ -1 21.0074 87.8475 TC 64 21.0000 87.9000 4 3 282
1941187N22088 1941 32 NI BB NOT_NAMED 1941-07-08 06:00:00 TS 21.0068 87.8352 main 78 78 _________OP___ -1 21.0000 87.9000 TC 64 21.0136 87.7705 4 0 275
1941187N22088 1941 32 NI BB NOT_NAMED 1941-07-08 09:00:00 TS 21.0071 87.8324 main 78 73 _________PP___ -1 21.0000 87.9000 TC 64 21.0142 87.7648 4 0 0
1941187N22088 1941 32 NI BB NOT_NAMED 1941-07-08 12:00:00 TS 21.0039 87.8634 main 73 73 _________OP___ -1 21.0000 87.9000 TC 64 21.0077 87.8268 4 1 96
1941187N22088 1941 32 NI BB NOT_NAMED 1941-07-08 15:00:00 TS 21.0000 87.9000 main 73 73 _________PO___ -1 21.0000 87.9000 TC 64 21.0000 87.9000 4 0 96
1941187N22088 1941 32 NI BB NOT_NAMED 1941-07-08 18:00:00 TS 21.0000 87.9000 main 73 73 _________OP___ -1 21.0000 87.9000 TC 64 21.0000 87.9000 4 0 0
1941187N22088 1941 32 NI BB NOT_NAMED 1941-07-08 21:00:00 TS 21.0000 87.9000 main 73 73 _________PP___ -1 21.0000 87.9000 TC 64 21.0000 87.9000 4 0 0
1941187N22088 1941 32 NI BB NOT_NAMED 1941-07-09 00:00:00 TS 21.0000 87.9000 main 73 73 _________OP___ -1 21.0000 87.9000 TC 64 21.0000 87.9000 4 0 0
1941187N22088 1941 32 NI BB NOT_NAMED 1941-07-09 03:00:00 TS 21.0000 87.9000 main 73 73 _________PO___ -1 21.0000 87.9000 TC 64 21.0000 87.9000 4 0 0
1941187N22088 1941 32 NI BB NOT_NAMED 1941-07-09 06:00:00 TS 21.0000 87.9000 main 73 73 _________OP___ -1 21.0000 87.9000 TC 64 21.0000 87.9000 4 0 0
1941187N22088 1941 32 NI BB NOT_NAMED 1941-07-09 09:00:00 TS 21.0000 87.9000 main 73 73 _________PP___ -1 21.0000 87.9000 TC 64 21.0000 87.9000 4 0 0
1941187N22088 1941 32 NI BB NOT_NAMED 1941-07-09 12:00:00 TS 21.0000 87.9000 main 73 73 _________OP___ -1 21.0000 87.9000 TC 64 21.0000 87.9000 4 0 0
1941187N22088 1941 32 NI BB NOT_NAMED 1941-07-09 15:00:00 TS 21.0000 87.9000 main 73 73 _________PO___ -1 21.0000 87.9000 TC 64 21.0000 87.9000 4 1 123
1941187N22088 1941 32 NI BB NOT_NAMED 1941-07-09 18:00:00 TS 20.9692 87.9482 main 73 70 _________OP___ -1 21.0000 87.9000 TC 64 20.9384 87.9964 4 1 125
1941187N22088 1941 32 NI BB NOT_NAMED 1941-07-09 21:00:00 TS 20.9205 88.0226 main 80 80 _________PP___ -1 20.9548 87.9672 TC 64 20.8862 88.0779 4 0 127
1941187N22088 1941 32 NI BB NOT_NAMED 1941-07-10 00:00:00 TS 20.9455 87.9853 main 80 67 _________OP___ -1 21.0000 87.9000 TC 64 20.8909 88.0705 4 3 306
1941187N22088 1941 32 NI BB NOT_NAMED 1941-07-10 03:00:00 TS 21.1161 87.7311 main 63 22 _________PO___ -1 21.2323 87.5622 TC 55 21.0000 87.9000 4 9 308
1941187N22088 1941 32 NI BB NOT_NAMED 1941-07-10 06:00:00 TS 21.4681 87.2582 main 11 0 _________OP___ -1 21.6000 87.0000 TC 47 21.3362 87.5163 4 13 308
1941187N22088 1941 32 NI BB NOT_NAMED 1941-07-10 09:00:00 TS 21.9262 86.6318 main 0 0 _________PP___ -1 22.0876 86.3036 TC 38 21.7647 86.9601 4 15 305
1941187N22088 1941 32 NI BB NOT_NAMED 1941-07-10 12:00:00 TS 22.3429 85.8866 main 0 0 _________OP___ -1 22.5000 85.5000 TC 30 22.1858 86.2732 4 15 295
1941187N22088 1941 32 NI BB NOT_NAMED 1941-07-10 15:00:00 TS 22.5697 85.1110 main 0 0 _________PO___ -1 22.6395 84.7220 TC 30 22.5000 85.5000 1 15 279
1941187N22088 1941 32 NI BB NOT_NAMED 1941-07-10 18:00:00 TS 22.5770 84.2808 main 0 0 _________OP___ -1 22.6000 83.9000 TC 30 22.5540 84.6616 1 16 266
1941187N22088 1941 32 NI BB NOT_NAMED 1941-07-10 21:00:00 TS 22.4681 83.3596 main 0 0 _________PP___ -1 22.4431 82.9539 TC 30 22.4931 83.7653 1 17 262
1941187N22088 1941 32 NI BB NOT_NAMED 1941-07-11 00:00:00 TS 22.3426 82.4934 main 0 0 _________OP___ -1 22.3000 82.1000 TC 30 22.3853 82.8867 1 14 265
1941187N22088 1941 32 NI BB NOT_NAMED 1941-07-11 03:00:00 TS 22.3346 81.8203 main 0 0 _________PO___ -1 22.3691 81.5405 TC 30 22.3000 82.1000 1 11 274
1941187N22088 1941 32 NI BB NOT_NAMED 1941-07-11 06:00:00 TS 22.4182 81.3061 main 0 0 _________OP___ -1 22.5000 81.1000 TC 30 22.3363 81.5123 1 9 279
1941187N22088 1941 32 NI BB NOT_NAMED 1941-07-11 09:00:00 TS 22.4794 80.8128 main 0 0 _________PP___ -1 22.5498 80.6073 TC 30 22.4091 81.0183 1 9 278
1941187N22088 1941 32 NI BB NOT_NAMED 1941-07-11 12:00:00 TS 22.5512 80.3326 main 0 0 _________OP___ -1 22.6000 80.1000 TC 30 22.5024 80.5651 1 9 281
1941187N22088 1941 32 NI BB NOT_NAMED 1941-07-11 15:00:00 TS 22.6499 79.8326 main 0 0 _________PO___ -1 22.6998 79.5651 TC 30 22.6000 80.1000 1 9 281
1941187N22088 1941 32 NI BB NOT_NAMED 1941-07-11 18:00:00 TS 22.7361 79.3325 main 0 0 _________OP___ -1 22.8000 79.0000 TC 30 22.6881 79.5818 1 10 279
1941187N22088 1941 32 NI BB NOT_NAMED 1941-07-11 21:00:00 TS 22.8047 78.7720 main 0 0 _________PP___ -1 22.8630 78.4075 TC 30 22.7658 79.0150 1 10 277
1941187N22088 1941 32 NI BB NOT_NAMED 1941-07-12 00:00:00 TS 22.8570 78.2105 main 0 0 _________OP___ -1 22.9000 77.8000 TC 30 22.8356 78.4158 1 9 276
1941187N22088 1941 32 NI AS NOT_NAMED 1941-07-12 03:00:00 NR 22.9000 77.8000 main 0 __________O___ -1 TC 22.9000 77.8000 1 8 277

About IBTrACS Database

This database is a web-friendly format of International Best Track Archive for Climate Stewardship (IBTrACS), a global best track data archive curated by NOAA dating back to 1842.

Updated: 2021-10-19